Time;durP1;ratioP1;P1;durP2;ratioP2;P2;SDS_P1;SDS_P2;PMS_P1;PMS_P2;Temp;Humidity;BMP_temperature;BMP_pressure;BME280_temperature;BME280_humidity;BME280_pressure;Samples;Min_cycle;Max_cycle;Signal;HPM_P1;HPM_P2
2023/09/16 00:00:58;;;;;;;7.20;3.97;;;14.10;99.90;;;;;;5029806;28;20036;-77
2023/09/16 00:03:23;;;;;;;5.88;4.55;;;14.10;99.90;;;;;;5033308;28;20496;-77
2023/09/16 00:05:49;;;;;;;8.80;3.95;;;14.10;99.90;;;;;;5032444;28;20032;-77
2023/09/16 00:08:15;;;;;;;7.63;4.50;;;14.10;99.90;;;;;;5034401;28;20030;-77
2023/09/16 00:10:40;;;;;;;8.32;4.93;;;14.10;99.90;;;;;;5033675;28;20084;-78
2023/09/16 00:13:06;;;;;;;5.30;3.90;;;14.10;99.90;;;;;;5035410;28;20096;-78
2023/09/16 00:15:32;;;;;;;3.92;3.65;;;14.10;99.90;;;;;;5032880;28;20144;-78
2023/09/16 00:17:58;;;;;;;3.67;3.35;;;14.00;99.90;;;;;;5033430;28;20103;-78
2023/09/16 00:20:28;;;;;;;5.03;4.38;;;14.00;99.90;;;;;;5035558;28;20394;-77
2023/09/16 00:22:58;;;;;;;4.63;3.55;;;14.00;99.90;;;;;;5018854;28;20391;-77
2023/09/16 00:25:23;;;;;;;5.40;3.70;;;13.90;99.90;;;;;;5035851;28;20013;-77
2023/09/16 00:27:49;;;;;;;6.03;4.40;;;13.90;99.90;;;;;;5034013;28;20132;-78
2023/09/16 00:30:15;;;;;;;11.00;3.83;;;13.90;99.90;;;;;;5035783;28;20025;-76
2023/09/16 00:32:42;;;;;;;9.93;4.80;;;13.90;99.90;;;;;;5036612;28;20030;-77
2023/09/16 00:35:08;;;;;;;6.18;4.45;;;14.00;99.90;;;;;;5035787;28;20017;-78
2023/09/16 00:37:34;;;;;;;8.02;3.78;;;14.10;99.90;;;;;;5039820;28;20040;-78
2023/09/16 00:39:59;;;;;;;9.15;3.95;;;14.00;99.90;;;;;;5035995;28;20488;-78
2023/09/16 00:42:26;;;;;;;6.90;3.90;;;14.00;99.90;;;;;;5035610;28;20060;-78
2023/09/16 00:44:52;;;;;;;14.27;4.90;;;13.90;99.90;;;;;;5035913;28;20104;-78
2023/09/16 00:47:18;;;;;;;4.55;3.75;;;13.90;99.90;;;;;;5034313;28;20409;-78
2023/09/16 00:49:44;;;;;;;2.95;2.75;;;13.90;99.90;;;;;;5034654;28;20029;-78
2023/09/16 00:52:10;;;;;;;4.18;3.55;;;13.80;99.90;;;;;;5037012;28;20022;-77
2023/09/16 00:54:36;;;;;;;3.85;3.25;;;13.90;99.90;;;;;;5034385;28;20033;-78
2023/09/16 00:57:08;;;;;;;5.53;3.55;;;14.00;99.90;;;;;;5034272;28;20025;-77
2023/09/16 00:59:35;;;;;;;5.53;4.13;;;14.00;99.90;;;;;;5036452;28;20029;-77
2023/09/16 01:02:01;;;;;;;18.67;4.30;;;13.90;99.90;;;;;;5035218;28;20021;-77
2023/09/16 01:04:27;;;;;;;7.22;3.90;;;13.80;99.90;;;;;;5033484;28;20104;-77
2023/09/16 01:06:53;;;;;;;4.47;3.78;;;13.70;99.90;;;;;;5033841;28;20466;-79
2023/09/16 01:09:21;;;;;;;9.65;4.25;;;13.70;99.90;;;;;;5033146;28;20093;-78
2023/09/16 01:11:47;;;;;;;4.95;3.70;;;13.80;99.90;;;;;;5033687;28;20021;-77
2023/09/16 01:14:13;;;;;;;6.40;5.03;;;13.90;99.90;;;;;;5034814;28;20021;-77
2023/09/16 01:16:47;;;;;;;16.23;6.10;;;13.90;99.90;;;;;;5033603;28;20045;-78
2023/09/16 01:19:36;;;;;;;5.53;4.15;;;13.90;99.90;;;;;;5035131;28;20018;-77
2023/09/16 01:22:02;;;;;;;4.93;4.33;;;13.90;99.90;;;;;;5034272;28;20022;-78
2023/09/16 01:24:28;;;;;;;5.57;4.35;;;13.80;99.90;;;;;;5033698;28;20618;-78
2023/09/16 01:26:53;;;;;;;4.00;3.00;;;13.80;99.90;;;;;;5034860;28;20025;-77
2023/09/16 01:29:20;;;;;;;9.98;3.58;;;13.60;99.90;;;;;;5034636;28;20028;-77
2023/09/16 01:31:47;;;;;;;7.43;5.43;;;13.70;99.90;;;;;;5034591;28;20032;-78
2023/09/16 01:34:44;;;;;;;8.07;5.30;;;13.80;99.90;;;;;;5035659;28;20036;-77
2023/09/16 01:37:21;;;;;;;11.90;4.65;;;13.90;99.90;;;;;;5035557;28;20034;-78
2023/09/16 01:39:55;;;;;;;4.38;3.92;;;13.80;99.90;;;;;;5035240;28;20033;-77
2023/09/16 01:42:22;;;;;;;6.60;4.70;;;13.70;99.90;;;;;;5035010;28;20466;-78
2023/09/16 01:44:48;;;;;;;6.47;3.92;;;13.70;99.90;;;;;;5032314;28;20045;-77
2023/09/16 01:47:14;;;;;;;8.13;5.10;;;13.70;99.90;;;;;;5033366;28;20060;-77
2023/09/16 01:49:40;;;;;;;11.00;4.13;;;13.60;99.90;;;;;;5032243;28;20427;-78
2023/09/16 01:52:08;;;;;;;5.60;4.55;;;13.60;99.90;;;;;;5031549;28;20033;-78
2023/09/16 01:54:34;;;;;;;7.65;4.20;;;13.70;99.90;;;;;;5032278;28;20036;-78
2023/09/16 01:57:00;;;;;;;6.65;5.20;;;13.60;99.90;;;;;;5031198;28;20101;-78
2023/09/16 01:59:26;;;;;;;6.70;5.32;;;13.60;99.90;;;;;;5031333;28;20060;-78
2023/09/16 02:01:51;;;;;;;4.43;3.92;;;13.50;99.90;;;;;;5031141;28;20049;-78
2023/09/16 02:04:17;;;;;;;7.05;4.15;;;13.50;99.90;;;;;;5031005;28;20041;-78
2023/09/16 02:06:46;;;;;;;4.32;3.30;;;13.40;99.90;;;;;;5031066;28;20020;-78
2023/09/16 02:09:12;;;;;;;5.20;3.97;;;13.40;99.90;;;;;;5032197;28;20033;-76
2023/09/16 02:11:38;;;;;;;6.40;4.03;;;13.30;99.90;;;;;;5034041;28;20022;-78
2023/09/16 02:14:04;;;;;;;15.38;5.63;;;13.20;99.90;;;;;;5035558;28;20545;-78
2023/09/16 02:16:33;;;;;;;5.30;4.13;;;13.30;99.90;;;;;;5034029;28;20052;-77
2023/09/16 02:18:59;;;;;;;12.05;4.22;;;13.40;99.90;;;;;;5034118;28;20489;-78
2023/09/16 02:21:25;;;;;;;9.35;5.43;;;13.40;99.90;;;;;;5033836;28;20033;-78
2023/09/16 02:23:50;;;;;;;4.75;3.95;;;13.40;99.90;;;;;;5033841;28;20116;-77
2023/09/16 02:26:16;;;;;;;8.10;3.70;;;13.40;99.90;;;;;;5036535;28;20076;-77
2023/09/16 02:28:42;;;;;;;6.63;4.50;;;13.30;99.90;;;;;;5035307;28;20036;-77
2023/09/16 02:31:09;;;;;;;6.60;4.03;;;13.30;99.90;;;;;;5035329;28;20445;-77
2023/09/16 02:33:36;;;;;;;5.72;3.88;;;13.20;99.90;;;;;;5035936;28;20083;-77
2023/09/16 02:36:02;;;;;;;5.45;3.45;;;13.20;99.90;;;;;;5037483;28;20020;-77
2023/09/16 02:38:28;;;;;;;7.10;4.70;;;13.10;99.90;;;;;;5038078;28;20022;-77
2023/09/16 02:40:53;;;;;;;5.45;4.32;;;13.20;99.90;;;;;;5032430;28;20120;-78
2023/09/16 02:43:19;;;;;;;6.25;4.25;;;13.20;99.90;;;;;;5033017;28;20037;-78
2023/09/16 02:45:44;;;;;;;4.70;3.63;;;13.20;99.90;;;;;;5031913;28;20029;-77
2023/09/16 02:48:10;;;;;;;8.05;4.80;;;13.20;99.90;;;;;;5036584;28;20045;-77
2023/09/16 02:50:39;;;;;;;8.52;3.95;;;13.20;99.90;;;;;;5035683;28;20025;-77
2023/09/16 02:53:05;;;;;;;5.00;3.38;;;13.10;99.90;;;;;;5034714;28;20025;-77
2023/09/16 02:55:32;;;;;;;4.80;3.30;;;13.00;99.90;;;;;;5036102;28;20108;-78
2023/09/16 02:58:01;;;;;;;3.33;3.03;;;13.10;99.90;;;;;;5033801;28;20021;-77
2023/09/16 03:00:26;;;;;;;4.30;3.90;;;13.00;99.90;;;;;;5036409;28;20543;-77
2023/09/16 03:02:55;;;;;;;4.95;3.92;;;12.90;99.90;;;;;;5036851;28;20041;-77
2023/09/16 03:05:20;;;;;;;4.25;3.85;;;12.90;99.90;;;;;;5035230;28;20417;-77
2023/09/16 03:07:46;;;;;;;5.80;4.65;;;12.90;99.90;;;;;;5033425;28;20152;-77
2023/09/16 03:10:12;;;;;;;7.60;4.68;;;13.00;99.90;;;;;;5035245;28;20507;-77
2023/09/16 03:12:39;;;;;;;4.63;3.85;;;13.00;99.90;;;;;;5035836;28;20477;-76
2023/09/16 03:15:05;;;;;;;7.47;4.15;;;13.00;99.90;;;;;;5034063;28;20033;-76
2023/09/16 03:17:31;;;;;;;4.63;3.60;;;12.90;99.90;;;;;;5035174;28;20509;-77
2023/09/16 03:19:56;;;;;;;4.43;3.72;;;12.90;99.90;;;;;;5033991;28;20029;-77
2023/09/16 03:22:23;;;;;;;6.70;4.47;;;12.80;99.90;;;;;;5034906;28;20034;-77
2023/09/16 03:24:49;;;;;;;6.30;4.25;;;12.90;99.90;;;;;;5034873;28;20441;-78
2023/09/16 03:27:15;;;;;;;4.93;3.60;;;12.70;99.90;;;;;;5035392;28;20052;-78
2023/09/16 03:29:41;;;;;;;10.73;4.50;;;12.70;99.90;;;;;;5034096;28;20025;-77
2023/09/16 03:32:06;;;;;;;8.32;4.43;;;12.80;99.90;;;;;;5031385;28;20066;-78
2023/09/16 03:34:32;;;;;;;7.35;4.07;;;12.80;99.90;;;;;;5032728;28;20471;-77
2023/09/16 03:36:58;;;;;;;4.32;3.92;;;12.80;99.90;;;;;;5032051;28;20309;-78
2023/09/16 03:39:24;;;;;;;5.07;3.42;;;12.80;99.90;;;;;;5035670;28;20478;-77
2023/09/16 03:41:50;;;;;;;6.65;4.18;;;12.70;99.90;;;;;;5034361;28;20035;-77
2023/09/16 03:44:15;;;;;;;5.00;3.75;;;12.70;99.90;;;;;;5031431;28;20056;-77
2023/09/16 03:46:41;;;;;;;3.08;2.78;;;12.60;99.90;;;;;;5032904;28;20036;-77
2023/09/16 03:49:07;;;;;;;4.50;3.03;;;12.50;99.90;;;;;;5032456;28;20466;-77
2023/09/16 03:51:35;;;;;;;5.22;3.50;;;12.50;99.90;;;;;;5031649;28;20052;-77
2023/09/16 03:54:00;;;;;;;6.32;4.28;;;12.50;99.90;;;;;;5032489;28;20064;-78
2023/09/16 03:56:26;;;;;;;3.28;2.97;;;12.50;99.90;;;;;;5031429;28;20029;-77
2023/09/16 03:58:52;;;;;;;4.40;3.38;;;12.50;99.90;;;;;;5031578;28;20102;-77
2023/09/16 04:01:17;;;;;;;3.25;2.95;;;12.50;99.90;;;;;;5031183;28;20128;-77
2023/09/16 04:03:43;;;;;;;4.65;4.18;;;12.50;99.90;;;;;;5031713;28;20037;-78
2023/09/16 04:06:09;;;;;;;6.15;3.35;;;12.40;99.90;;;;;;5031809;28;20155;-77
2023/09/16 04:08:35;;;;;;;5.85;3.65;;;12.40;99.90;;;;;;5030930;28;20103;-77
2023/09/16 04:11:01;;;;;;;4.00;3.47;;;12.40;99.90;;;;;;5030677;28;20026;-78
2023/09/16 04:13:27;;;;;;;4.63;3.65;;;12.40;99.90;;;;;;5032333;28;20481;-77
2023/09/16 04:15:52;;;;;;;13.73;4.00;;;12.40;99.90;;;;;;5031697;28;20083;-77
2023/09/16 04:18:18;;;;;;;5.22;4.10;;;12.40;99.90;;;;;;5032228;28;20036;-77
2023/09/16 04:20:48;;;;;;;4.53;3.78;;;12.30;99.90;;;;;;5031919;28;20025;-77
2023/09/16 04:23:13;;;;;;;;;;;12.30;99.90;;;;;;5032064;28;20037;-76
2023/09/16 04:25:39;;;;;;;8.25;4.80;;;12.30;99.90;;;;;;5033780;28;19911;-77
2023/09/16 04:28:05;;;;;;;6.55;4.32;;;12.30;99.90;;;;;;5030696;28;20104;-77
2023/09/16 04:30:31;;;;;;;17.15;6.10;;;12.40;99.90;;;;;;5030327;28;20487;-77
2023/09/16 04:32:57;;;;;;;5.13;4.63;;;12.50;99.90;;;;;;5031867;28;20051;-76
2023/09/16 04:35:22;;;;;;;9.43;4.72;;;12.50;99.90;;;;;;5040466;28;20168;-78
2023/09/16 04:37:48;;;;;;;8.85;5.53;;;12.50;99.90;;;;;;5036831;28;20025;-77
2023/09/16 04:40:14;;;;;;;4.85;4.40;;;12.60;99.90;;;;;;5038315;28;20033;-77
2023/09/16 04:42:40;;;;;;;6.75;4.53;;;12.60;99.90;;;;;;5037837;28;20043;-77
2023/09/16 04:45:06;;;;;;;2.92;2.67;;;12.50;99.90;;;;;;5037431;28;20300;-78
2023/09/16 04:47:33;;;;;;;4.20;3.35;;;12.40;99.90;;;;;;5034817;28;20302;-77
2023/09/16 04:49:59;;;;;;;4.82;3.70;;;12.40;99.90;;;;;;5040877;28;20017;-77
2023/09/16 04:52:25;;;;;;;3.88;3.42;;;12.30;99.90;;;;;;5041788;28;20048;-77
2023/09/16 04:54:54;;;;;;;4.28;3.67;;;12.30;99.90;;;;;;5041200;28;20028;-77
2023/09/16 04:57:22;;;;;;;3.85;3.22;;;12.30;99.90;;;;;;5041951;28;20040;-77
2023/09/16 04:59:48;;;;;;;6.07;3.13;;;12.20;99.90;;;;;;5039676;28;20037;-78
2023/09/16 05:02:14;;;;;;;5.15;3.85;;;12.20;99.90;;;;;;5039639;28;20022;-77
2023/09/16 05:04:40;;;;;;;6.40;3.55;;;12.20;99.90;;;;;;5042994;28;20048;-77
2023/09/16 05:07:06;;;;;;;4.38;3.95;;;12.30;99.90;;;;;;5042804;28;20017;-77
2023/09/16 05:09:32;;;;;;;5.50;3.72;;;12.30;99.90;;;;;;5036343;28;20103;-78
2023/09/16 05:11:57;;;;;;;5.50;3.78;;;12.30;99.90;;;;;;5043167;28;20030;-77
2023/09/16 05:14:24;;;;;;;3.72;3.35;;;12.30;99.90;;;;;;5043080;28;20026;-76
2023/09/16 05:16:50;;;;;;;4.68;3.63;;;12.30;99.90;;;;;;5041307;28;20080;-76
2023/09/16 05:19:15;;;;;;;5.30;3.30;;;12.30;99.90;;;;;;5042725;28;20317;-77
2023/09/16 05:21:41;;;;;;;5.90;3.88;;;12.30;99.90;;;;;;5042790;28;20203;-78
2023/09/16 05:24:07;;;;;;;5.40;3.75;;;12.30;99.90;;;;;;5040668;28;20049;-78
2023/09/16 05:26:32;;;;;;;6.47;4.55;;;12.30;99.90;;;;;;5042205;28;20033;-78
2023/09/16 05:28:58;;;;;;;4.22;3.53;;;12.30;99.90;;;;;;5043621;28;20482;-78
2023/09/16 05:31:24;;;;;;;11.88;4.20;;;12.40;99.90;;;;;;5043571;28;20405;-77
2023/09/16 05:33:50;;;;;;;6.25;3.75;;;12.40;99.90;;;;;;5043289;28;20092;-78
2023/09/16 05:36:16;;;;;;;4.07;2.70;;;12.40;99.90;;;;;;5042362;28;20096;-78
2023/09/16 05:38:42;;;;;;;3.72;3.42;;;12.40;99.90;;;;;;5041531;28;20106;-79
2023/09/16 05:41:08;;;;;;;3.80;3.47;;;12.30;99.90;;;;;;5038691;28;20429;-78
2023/09/16 05:43:33;;;;;;;4.50;2.67;;;12.30;99.90;;;;;;5042150;28;20029;-78
2023/09/16 05:46:01;;;;;;;4.78;3.10;;;12.30;99.90;;;;;;5042626;28;20017;-77
2023/09/16 05:48:27;;;;;;;6.13;3.30;;;12.40;99.90;;;;;;5041321;28;20199;-78
2023/09/16 05:50:57;;;;;;;3.65;3.00;;;12.50;99.90;;;;;;5041912;28;20037;-78
2023/09/16 05:53:23;;;;;;;6.03;3.50;;;12.50;99.90;;;;;;5041607;28;20029;-78
2023/09/16 05:55:48;;;;;;;4.10;3.17;;;12.60;99.90;;;;;;5041205;28;20101;-77
2023/09/16 05:58:14;;;;;;;7.93;4.78;;;12.60;99.90;;;;;;5041979;28;20029;-78
2023/09/16 06:00:40;;;;;;;6.13;3.88;;;12.80;99.90;;;;;;5040499;28;20021;-78
2023/09/16 06:03:05;;;;;;;5.25;4.25;;;13.00;99.90;;;;;;5041896;28;20028;-78
2023/09/16 06:05:33;;;;;;;7.65;3.55;;;13.10;99.90;;;;;;5041644;28;20033;-78
2023/09/16 06:07:58;;;;;;;5.35;3.83;;;13.30;99.90;;;;;;5040567;28;20488;-77
2023/09/16 06:10:24;;;;;;;6.63;4.45;;;13.40;99.90;;;;;;5041298;28;20275;-79
2023/09/16 06:12:50;;;;;;;4.90;3.88;;;13.60;99.90;;;;;;5039799;28;20068;-78
2023/09/16 06:15:16;;;;;;;6.22;4.15;;;13.70;99.90;;;;;;5039078;28;20048;-77
2023/09/16 06:17:41;;;;;;;8.68;5.20;;;13.90;99.90;;;;;;5041357;28;20076;-78
2023/09/16 06:20:08;;;;;;;7.53;4.68;;;14.20;99.90;;;;;;5039257;28;20033;-78
2023/09/16 06:22:34;;;;;;;6.90;4.63;;;14.40;99.90;;;;;;5040459;28;20192;-78
2023/09/16 06:24:59;;;;;;;4.55;3.58;;;14.60;99.90;;;;;;5041103;28;20013;-78
2023/09/16 06:27:25;;;;;;;7.80;3.75;;;14.80;99.90;;;;;;5039381;28;20647;-77
2023/09/16 06:29:52;;;;;;;3.80;3.47;;;15.00;99.90;;;;;;5040271;28;20028;-79
2023/09/16 06:32:19;;;;;;;5.13;3.90;;;15.20;99.90;;;;;;5040339;28;20039;-79
2023/09/16 06:34:45;;;;;;;7.82;5.00;;;15.50;99.90;;;;;;5040736;28;20018;-79
2023/09/16 06:37:10;;;;;;;5.47;4.40;;;15.90;99.90;;;;;;5039252;28;20180;-78
2023/09/16 06:39:37;;;;;;;5.38;4.13;;;16.10;99.90;;;;;;5040019;28;20030;-78
2023/09/16 06:42:04;;;;;;;4.80;3.88;;;16.50;99.90;;;;;;5040182;28;20021;-78
2023/09/16 06:44:30;;;;;;;4.30;3.78;;;16.70;99.90;;;;;;5038660;28;20046;-78
2023/09/16 06:46:56;;;;;;;5.32;4.72;;;16.70;99.90;;;;;;5038863;28;20101;-79
2023/09/16 06:49:25;;;;;;;8.55;5.35;;;17.00;99.90;;;;;;5038407;28;20040;-78
2023/09/16 06:51:50;;;;;;;8.68;4.35;;;17.10;99.90;;;;;;5039976;28;20021;-79
2023/09/16 06:54:16;;;;;;;16.05;5.35;;;17.20;99.90;;;;;;5038882;28;20064;-78
2023/09/16 06:56:42;;;;;;;6.18;4.15;;;17.10;99.90;;;;;;5038517;28;20462;-79
2023/09/16 06:59:07;;;;;;;9.85;6.30;;;17.30;99.90;;;;;;5038055;28;20029;-79
2023/09/16 07:01:34;;;;;;;8.15;5.28;;;17.40;99.90;;;;;;5040046;28;20067;-79
2023/09/16 07:04:00;;;;;;;6.38;5.28;;;17.50;99.90;;;;;;5039920;28;20053;-80
2023/09/16 07:06:25;;;;;;;6.25;5.55;;;17.60;99.90;;;;;;5038651;28;20032;-78
2023/09/16 07:08:51;;;;;;;6.88;5.72;;;17.70;99.90;;;;;;5040504;28;20018;-76
2023/09/16 07:11:17;;;;;;;9.85;6.47;;;17.80;99.90;;;;;;5040007;28;20066;-78
2023/09/16 07:13:44;;;;;;;7.05;5.90;;;17.90;99.90;;;;;;5037973;28;20033;-78
2023/09/16 07:16:13;;;;;;;9.50;6.22;;;17.90;99.90;;;;;;5040131;28;20294;-77
2023/09/16 07:18:39;;;;;;;;;;;18.00;99.90;;;;;;5039744;28;20040;-78
2023/09/16 07:21:04;;;;;;;14.07;7.80;;;18.10;99.90;;;;;;5040064;28;19905;-78
2023/09/16 07:23:30;;;;;;;15.88;7.43;;;18.20;99.90;;;;;;5039719;28;20075;-78
2023/09/16 07:25:57;;;;;;;10.35;7.78;;;18.30;99.90;;;;;;5039795;28;20022;-77
2023/09/16 07:28:24;;;;;;;13.07;6.93;;;18.40;99.90;;;;;;5038753;28;20101;-79
2023/09/16 07:30:50;;;;;;;10.68;6.57;;;18.50;99.90;;;;;;5037835;28;20028;-78
2023/09/16 07:33:15;;;;;;;10.60;5.75;;;18.50;99.90;;;;;;5039031;28;20053;-77
2023/09/16 07:35:41;;;;;;;11.38;6.95;;;18.60;99.90;;;;;;5033094;28;20021;-78
2023/09/16 07:38:08;;;;;;;8.52;5.90;;;18.70;99.90;;;;;;5034124;28;20029;-78
2023/09/16 07:40:35;;;;;;;8.45;6.57;;;18.70;99.90;;;;;;5029234;28;20031;-78
2023/09/16 07:43:01;;;;;;;9.00;5.90;;;18.70;99.90;;;;;;5029177;28;20021;-78
2023/09/16 07:45:27;;;;;;;8.35;6.47;;;18.70;99.90;;;;;;5027465;28;20382;-79
2023/09/16 07:47:53;;;;;;;13.60;6.38;;;18.80;99.90;;;;;;5029046;28;20124;-78
2023/09/16 07:50:19;;;;;;;7.63;5.03;;;18.80;99.90;;;;;;5028686;28;20142;-78
2023/09/16 07:52:44;;;;;;;9.98;6.50;;;18.90;99.90;;;;;;5029159;28;20445;-80
2023/09/16 07:55:10;;;;;;;9.40;6.35;;;19.00;99.90;;;;;;5026691;28;20026;-78
2023/09/16 07:57:36;;;;;;;17.55;7.88;;;19.10;99.90;;;;;;5028762;28;20093;-78
2023/09/16 08:00:07;;;;;;;12.88;6.05;;;19.10;99.90;;;;;;5028513;28;20045;-78
2023/09/16 08:02:35;;;;;;;10.35;5.82;;;19.20;99.90;;;;;;5029390;28;20031;-77
2023/09/16 08:05:01;;;;;;;12.85;5.70;;;19.20;99.90;;;;;;5027425;28;20029;-77
2023/09/16 08:07:28;;;;;;;12.00;5.80;;;19.20;99.90;;;;;;5028920;28;20026;-78
2023/09/16 08:09:54;;;;;;;10.23;6.57;;;19.30;99.90;;;;;;5028859;28;20112;-78
2023/09/16 08:12:23;;;;;;;10.80;5.75;;;19.30;99.90;;;;;;5029317;28;20113;-77
2023/09/16 08:14:49;;;;;;;7.03;5.20;;;19.30;99.90;;;;;;5029124;28;20206;-77
2023/09/16 08:17:15;;;;;;;8.73;6.22;;;19.40;99.90;;;;;;5028806;28;20088;-77
2023/09/16 08:19:40;;;;;;;7.43;4.60;;;19.50;99.90;;;;;;5028772;28;20025;-78
2023/09/16 08:22:06;;;;;;;7.95;4.85;;;19.50;99.90;;;;;;5029176;28;20074;-78
2023/09/16 08:24:31;;;;;;;7.97;5.50;;;19.60;99.90;;;;;;5030447;28;20037;-79
2023/09/16 08:26:57;;;;;;;10.15;5.53;;;19.70;99.90;;;;;;5032932;28;20268;-78
2023/09/16 08:29:23;;;;;;;7.93;5.22;;;19.90;99.90;;;;;;5032573;28;20057;-78
2023/09/16 08:31:48;;;;;;;10.70;6.30;;;20.10;99.90;;;;;;5032549;28;20079;-77
2023/09/16 08:34:14;;;;;;;10.15;6.72;;;20.20;99.90;;;;;;5032319;28;20081;-78
2023/09/16 08:36:39;;;;;;;9.50;6.32;;;20.40;99.90;;;;;;5031047;28;20544;-78
2023/09/16 08:39:05;;;;;;;9.45;6.35;;;20.40;99.90;;;;;;5032498;28;20481;-78
2023/09/16 08:41:47;;;;;;;14.30;8.05;;;20.40;99.90;;;;;;5032401;28;20029;-78
2023/09/16 08:44:14;;;;;;;14.18;7.07;;;20.60;99.90;;;;;;5032288;28;20033;-78
2023/09/16 08:46:47;;;;;;;10.32;6.93;;;20.80;99.90;;;;;;5035260;28;20340;-78
2023/09/16 08:49:17;;;;;;;10.68;6.35;;;21.30;99.90;;;;;;5042750;28;20033;-77
2023/09/16 08:51:46;;;;;;;12.10;6.47;;;21.50;99.90;;;;;;5035588;28;20036;-77
2023/09/16 08:54:12;;;;;;;14.15;7.38;;;21.80;99.90;;;;;;5035988;28;20036;-78
2023/09/16 08:56:42;;;;;;;9.77;6.72;;;22.40;99.90;;;;;;5037677;28;20021;-78
2023/09/16 08:59:08;;;;;;;11.02;6.43;;;22.80;99.90;;;;;;5041545;28;20029;-78
2023/09/16 09:01:33;;;;;;;7.38;5.28;;;23.30;99.90;;;;;;5039563;28;20487;-78
2023/09/16 09:04:00;;;;;;;9.68;6.55;;;23.30;99.90;;;;;;5035909;28;20034;-77
2023/09/16 09:06:28;;;;;;;19.58;5.13;;;23.40;99.90;;;;;;5036095;28;20028;-78
2023/09/16 09:08:53;;;;;;;6.57;5.13;;;23.00;99.90;;;;;;5038820;28;20056;-78
2023/09/16 09:11:19;;;;;;;12.57;4.68;;;22.80;99.90;;;;;;5040142;28;20033;-76
2023/09/16 09:13:46;;;;;;;5.18;3.70;;;22.80;99.90;;;;;;5038215;28;20021;-75
2023/09/16 09:16:16;;;;;;;7.22;4.10;;;22.80;99.90;;;;;;5042769;28;20338;-74
2023/09/16 09:18:44;;;;;;;7.95;3.90;;;22.70;99.90;;;;;;5042323;28;20029;-74
2023/09/16 09:21:11;;;;;;;5.55;3.80;;;22.90;99.90;;;;;;5041150;28;20214;-77
2023/09/16 09:23:36;;;;;;;5.07;4.60;;;23.20;99.90;;;;;;5042819;28;20041;-78
2023/09/16 09:26:02;;;;;;;8.50;5.60;;;23.40;99.90;;;;;;5041634;28;20248;-77
2023/09/16 09:28:28;;;;;;;5.53;4.28;;;23.20;99.90;;;;;;5042410;28;20048;-77
2023/09/16 09:30:55;;;;;;;6.65;3.72;;;23.30;99.90;;;;;;5040217;28;20186;-76
2023/09/16 09:33:21;;;;;;;5.57;4.15;;;23.50;99.90;;;;;;5039946;28;20179;-78
2023/09/16 09:35:47;;;;;;;7.40;4.47;;;23.80;99.90;;;;;;5040312;28;20096;-79
2023/09/16 09:38:14;;;;;;;5.10;4.07;;;24.10;99.90;;;;;;5040701;28;20017;-78
2023/09/16 09:40:56;;;;;;;6.15;4.07;;;24.30;99.90;;;;;;5041673;28;20053;-79
2023/09/16 09:43:23;;;;;;;4.88;3.70;;;24.60;99.90;;;;;;5041278;28;20034;-78
2023/09/16 09:45:49;;;;;;;4.47;4.07;;;24.70;99.90;;;;;;5042458;28;20016;-78
2023/09/16 09:48:15;;;;;;;7.00;3.72;;;24.70;99.90;;;;;;5042357;28;20325;-78
2023/09/16 09:50:41;;;;;;;4.82;3.88;;;24.70;99.90;;;;;;5042621;28;20025;-78
2023/09/16 09:53:07;;;;;;;4.05;3.10;;;24.60;99.90;;;;;;5041918;28;20064;-79
2023/09/16 09:55:33;;;;;;;3.85;3.33;;;24.80;99.90;;;;;;5040583;28;20022;-78
2023/09/16 09:57:59;;;;;;;5.43;4.03;;;25.10;99.90;;;;;;5040889;28;20022;-78
2023/09/16 10:00:26;;;;;;;5.45;3.58;;;24.80;99.90;;;;;;5040833;28;20040;-78
2023/09/16 10:02:52;;;;;;;5.05;4.13;;;24.80;99.90;;;;;;5038369;28;20201;-79
2023/09/16 10:05:20;;;;;;;3.55;3.20;;;24.90;99.90;;;;;;5035126;28;20025;-79
2023/09/16 10:07:46;;;;;;;4.07;3.67;;;24.70;99.90;;;;;;5030916;28;20034;-79
2023/09/16 10:10:21;;;;;;;4.47;3.67;;;24.50;99.90;;;;;;5030928;28;20047;-78
2023/09/16 10:12:50;;;;;;;4.15;3.08;;;24.60;99.90;;;;;;5029208;28;20017;-78
2023/09/16 10:15:16;;;;;;;4.47;3.78;;;24.90;99.90;;;;;;5030691;28;20021;-78
2023/09/16 10:17:45;;;;;;;6.80;3.50;;;24.90;99.90;;;;;;5030428;28;20056;-78
2023/09/16 10:20:11;;;;;;;5.75;4.15;;;24.60;99.90;;;;;;5030715;28;20466;-78
2023/09/16 10:22:41;;;;;;;5.28;4.00;;;24.60;99.90;;;;;;5028807;28;20037;-78
2023/09/16 10:25:08;;;;;;;6.93;4.47;;;24.30;99.90;;;;;;5030788;28;20030;-78
2023/09/16 10:27:43;;;;;;;4.05;3.47;;;24.30;99.90;;;;;;5032118;28;20079;-79
2023/09/16 10:30:12;;;;;;;7.50;4.25;;;24.50;99.90;;;;;;5033308;28;20101;-79
2023/09/16 10:32:39;;;;;;;6.95;3.22;;;24.90;99.90;;;;;;5031323;28;20045;-78
2023/09/16 10:35:06;;;;;;;4.45;3.47;;;25.10;99.90;;;;;;5038551;28;20375;-75
2023/09/16 10:37:35;;;;;;;4.22;3.83;;;25.40;99.90;;;;;;5042026;28;20021;-75
2023/09/16 10:40:02;;;;;;;;;;;25.80;99.90;;;;;;5040910;28;20026;-79
2023/09/16 10:42:29;;;;;;;6.88;3.10;;;25.90;99.90;;;;;;5040422;28;20185;-75
2023/09/16 10:44:57;;;;;;;3.88;3.03;;;25.70;99.60;;;;;;5041902;28;20045;-77
2023/09/16 10:47:23;;;;;;;4.07;3.63;;;25.60;99.30;;;;;;5040004;28;20009;-77
2023/09/16 10:49:49;;;;;;;5.35;2.90;;;25.40;99.90;;;;;;5041533;28;20080;-77
2023/09/16 10:52:18;;;;;;;6.47;2.75;;;25.30;99.20;;;;;;5040107;28;20014;-76
2023/09/16 10:54:59;;;;;;;5.55;3.78;;;25.40;98.40;;;;;;5033482;28;20029;-76
2023/09/16 10:57:38;;;;;;;3.35;3.05;;;25.60;96.70;;;;;;5040460;28;20040;-75
2023/09/16 11:00:04;;;;;;;3.30;3.00;;;25.90;96.90;;;;;;5030282;28;20172;-75
2023/09/16 11:02:56;;;;;;;4.30;2.63;;;26.50;96.40;;;;;;5029489;28;20033;-75
2023/09/16 11:05:22;;;;;;;2.67;2.28;;;26.90;94.50;;;;;;5002147;28;20030;-76
2023/09/16 11:07:49;;;;;;;3.60;2.90;;;27.30;93.50;;;;;;5009763;28;20360;-76
2023/09/16 11:10:15;;;;;;;2.80;2.38;;;27.50;92.40;;;;;;5008733;28;20036;-75
2023/09/16 11:12:41;;;;;;;6.68;3.15;;;27.40;91.80;;;;;;5008677;28;20026;-77
2023/09/16 11:15:08;;;;;;;2.50;2.30;;;27.50;92.70;;;;;;5010228;28;20029;-75
2023/09/16 11:17:36;;;;;;;4.55;2.60;;;27.30;91.90;;;;;;5010120;28;20045;-75
2023/09/16 11:20:21;;;;;;;2.40;2.17;;;26.70;91.40;;;;;;5018784;28;20218;-74
2023/09/16 11:22:48;;;;;;;3.67;2.95;;;26.20;91.40;;;;;;5014357;28;20486;-75
2023/09/16 11:25:18;;;;;;;3.45;2.63;;;25.90;91.90;;;;;;5017126;28;20033;-75
2023/09/16 11:27:50;;;;;;;2.35;2.10;;;25.80;91.80;;;;;;5032268;28;20071;-76
2023/09/16 11:30:16;;;;;;;2.30;2.10;;;25.70;91.50;;;;;;5031305;28;20107;-76
2023/09/16 11:33:03;;;;;;;4.63;2.42;;;26.00;93.40;;;;;;5046643;28;20396;-76
2023/09/16 11:35:29;;;;;;;3.10;2.47;;;26.30;91.30;;;;;;5054069;28;20033;-74
2023/09/16 11:37:56;;;;;;;3.55;2.95;;;26.60;91.10;;;;;;5053569;28;20062;-76
2023/09/16 11:40:31;;;;;;;4.80;3.00;;;26.90;90.10;;;;;;5049759;28;20106;-75
2023/09/16 11:42:57;;;;;;;3.53;2.53;;;27.40;90.40;;;;;;5058090;28;20055;-75
2023/09/16 11:45:23;;;;;;;2.47;2.05;;;27.80;88.50;;;;;;5040045;28;20421;-75
2023/09/16 11:47:49;;;;;;;3.88;2.40;;;28.10;86.80;;;;;;5042001;28;20071;-75
2023/09/16 11:50:26;;;;;;;2.33;2.22;;;28.70;87.80;;;;;;5039461;28;20044;-75
2023/09/16 11:52:54;;;;;;;2.42;2.22;;;29.00;85.40;;;;;;5041136;28;20021;-75
2023/09/16 11:55:20;;;;;;;2.60;1.98;;;29.20;81.80;;;;;;5038443;28;20044;-74
2023/09/16 11:57:48;;;;;;;3.85;1.90;;;29.30;81.20;;;;;;5039234;28;20162;-76
2023/09/16 12:00:14;;;;;;;3.15;2.85;;;29.50;81.00;;;;;;5038539;28;20128;-75
2023/09/16 12:02:43;;;;;;;1.80;1.67;;;30.50;77.60;;;;;;5039638;28;20013;-75
2023/09/16 12:05:10;;;;;;;2.20;1.67;;;31.40;74.40;;;;;;5039711;28;20067;-76
2023/09/16 12:07:37;;;;;;;2.65;1.95;;;32.10;72.50;;;;;;5039230;28;20274;-75
2023/09/16 12:10:04;;;;;;;4.63;2.50;;;32.10;72.10;;;;;;5038397;28;20017;-74
2023/09/16 12:12:29;;;;;;;3.00;1.95;;;32.80;69.50;;;;;;5039503;28;20036;-75
2023/09/16 12:14:56;;;;;;;3.05;1.95;;;32.80;67.30;;;;;;5039432;28;20013;-73
2023/09/16 12:17:25;;;;;;;1.88;1.77;;;32.50;67.40;;;;;;5039064;28;20041;-73
2023/09/16 12:19:52;;;;;;;2.80;2.53;;;33.20;66.30;;;;;;5038361;28;20038;-74
2023/09/16 12:22:19;;;;;;;3.72;1.95;;;34.40;67.60;;;;;;5035415;28;20464;-75
2023/09/16 12:24:45;;;;;;;1.75;1.63;;;33.20;63.70;;;;;;5036614;28;20332;-75
2023/09/16 12:27:14;;;;;;;2.40;2.20;;;32.80;64.70;;;;;;5039710;28;20010;-75
2023/09/16 12:29:40;;;;;;;2.33;1.80;;;32.30;65.50;;;;;;5036613;28;20040;-75
2023/09/16 12:32:21;;;;;;;2.10;1.90;;;31.30;68.20;;;;;;5039133;28;20199;-75
2023/09/16 12:35:06;;;;;;;3.17;1.65;;;30.80;66.40;;;;;;5037587;28;20017;-76
2023/09/16 12:37:31;;;;;;;2.67;2.35;;;30.70;67.60;;;;;;5038088;28;20033;-76
2023/09/16 12:39:58;;;;;;;2.10;1.80;;;30.40;69.00;;;;;;5039458;28;20089;-74
2023/09/16 12:42:24;;;;;;;2.58;1.63;;;31.20;69.00;;;;;;5038765;28;20093;-74
2023/09/16 12:44:51;;;;;;;3.65;2.05;;;31.70;68.60;;;;;;5039001;28;20022;-75